createdAt,value
2019-04-21T00:02:05.963Z,101278.00
2019-04-21T00:04:48.317Z,101268.00
2019-04-21T00:07:25.074Z,101269.00
2019-04-21T00:10:03.432Z,101256.00
2019-04-21T00:12:25.348Z,101250.00
2019-04-21T00:14:47.173Z,101252.00
2019-04-21T00:17:09.731Z,101246.00
2019-04-21T00:19:39.518Z,101242.00
2019-04-21T00:22:19.275Z,101249.00
2019-04-21T00:24:53.447Z,101241.00
2019-04-21T00:27:26.534Z,101241.00
2019-04-21T00:29:59.323Z,101227.00
2019-04-21T00:32:22.186Z,101220.00
2019-04-21T00:34:42.040Z,101225.00
2019-04-21T00:37:21.005Z,101219.00
2019-04-21T00:42:30.225Z,101202.00
2019-04-21T00:44:58.576Z,101206.00
2019-04-21T00:47:31.656Z,101199.00
2019-04-21T00:50:02.361Z,101190.00
2019-04-21T00:53:03.480Z,101188.00
2019-04-21T00:55:38.895Z,101197.00
2019-04-21T00:58:13.144Z,101184.00
2019-04-21T01:00:42.954Z,101185.00
2019-04-21T01:03:10.415Z,101189.00
2019-04-21T01:05:42.913Z,101186.00
2019-04-21T01:08:09.520Z,101197.00
2019-04-21T01:10:28.594Z,101188.00
2019-04-21T01:13:09.624Z,101185.00
2019-04-21T01:15:43.963Z,101185.00
2019-04-21T01:18:12.334Z,101193.00
2019-04-21T01:20:18.250Z,101185.00
2019-04-21T01:22:46.275Z,101186.00
2019-04-21T01:25:22.957Z,101191.00
2019-04-21T01:27:59.719Z,101181.00
2019-04-21T01:30:34.525Z,101174.00
2019-04-21T01:33:09.474Z,101170.00
2019-04-21T01:35:38.168Z,101171.00
2019-04-21T01:38:10.965Z,101173.00
2019-04-21T01:40:33.764Z,101166.00
2019-04-21T01:43:02.838Z,101165.00
2019-04-21T01:45:33.427Z,101171.00
2019-04-21T01:48:01.343Z,101160.00
2019-04-21T01:50:36.229Z,101152.00
2019-04-21T01:53:17.662Z,101166.00
2019-04-21T01:56:11.775Z,101155.00
2019-04-21T01:58:36.546Z,101155.00
2019-04-21T02:01:10.196Z,101150.00
2019-04-21T02:03:54.482Z,101150.00
2019-04-21T02:06:18.019Z,101151.00
2019-04-21T02:08:43.437Z,101145.00
2019-04-21T02:11:17.040Z,101166.00
2019-04-21T02:13:56.192Z,101148.00
2019-04-21T02:16:18.570Z,101145.00
2019-04-21T02:18:46.483Z,101143.00
2019-04-21T02:21:04.387Z,101136.00
2019-04-21T02:23:54.310Z,101134.00
2019-04-21T02:26:21.219Z,101138.00
2019-04-21T02:31:28.714Z,101125.00
2019-04-21T02:36:41.301Z,101124.00
2019-04-21T02:41:32.649Z,101122.00
2019-04-21T02:44:00.459Z,101121.00
2019-04-21T02:46:35.479Z,101122.00
2019-04-21T02:49:11.179Z,101121.00
2019-04-21T02:51:33.718Z,101116.00
2019-04-21T02:54:35.917Z,101124.00
2019-04-21T02:56:34.097Z,101111.00
2019-04-21T02:59:17.290Z,101115.00
2019-04-21T03:01:59.255Z,101112.00
2019-04-21T03:04:28.035Z,101109.00
2019-04-21T03:12:07.069Z,101094.00
2019-04-21T03:14:41.352Z,101104.00
2019-04-21T03:17:00.758Z,101087.00
2019-04-21T03:19:37.368Z,101101.00
2019-04-21T03:22:12.280Z,101090.00
2019-04-21T03:24:53.926Z,101078.00
2019-04-21T03:29:42.557Z,101089.00
2019-04-21T03:32:32.671Z,101088.00
2019-04-21T03:37:07.691Z,101081.00
2019-04-21T03:42:21.510Z,101083.00
2019-04-21T03:44:37.060Z,101079.00
2019-04-21T03:49:54.575Z,101082.00
2019-04-21T03:52:12.961Z,101080.00
2019-04-21T03:55:44.733Z,101079.00
2019-04-21T04:00:33.749Z,101070.00
2019-04-21T04:03:10.273Z,101064.00
2019-04-21T04:08:37.242Z,101066.00
2019-04-21T04:11:05.067Z,101062.00
2019-04-21T04:13:34.176Z,101067.00
2019-04-21T04:16:05.917Z,101062.00
2019-04-21T04:18:28.575Z,101066.00
2019-04-21T04:23:21.348Z,101061.00
2019-04-21T04:25:53.687Z,101068.00
2019-04-21T04:28:18.803Z,101068.00
2019-04-21T04:33:28.239Z,101064.00
2019-04-21T04:41:11.644Z,101070.00
2019-04-21T04:43:32.951Z,101069.00
2019-04-21T04:45:58.430Z,101055.00
2019-04-21T04:53:40.431Z,101057.00
2019-04-21T04:56:08.123Z,101053.00
2019-04-21T05:01:19.530Z,101064.00
2019-04-21T05:03:44.413Z,101052.00
2019-04-21T05:11:40.286Z,101057.00
2019-04-21T05:16:41.005Z,101059.00
2019-04-21T05:23:48.109Z,101071.00
2019-04-21T05:26:15.003Z,101065.00
2019-04-21T05:28:46.190Z,101067.00
2019-04-21T05:31:50.918Z,101068.00
2019-04-21T05:34:19.236Z,101072.00
2019-04-21T05:36:50.329Z,101067.00
2019-04-21T05:39:23.407Z,101069.00
2019-04-21T05:41:48.470Z,101062.00
2019-04-21T05:44:40.005Z,101072.00
2019-04-21T05:47:08.124Z,101065.00
2019-04-21T05:49:49.915Z,101067.00
2019-04-21T05:52:19.615Z,101066.00
2019-04-21T05:54:57.419Z,101063.00
2019-04-21T05:57:26.602Z,101070.00
2019-04-21T05:59:53.738Z,101068.00
2019-04-21T06:02:24.276Z,101064.00
2019-04-21T06:05:01.957Z,101057.00
2019-04-21T06:09:59.683Z,101053.00
2019-04-21T06:12:33.999Z,101055.00
2019-04-21T06:15:02.598Z,101057.00
2019-04-21T06:20:00.325Z,101054.00
2019-04-21T06:22:23.947Z,101062.00
2019-04-21T06:30:12.081Z,101051.00
2019-04-21T06:35:25.563Z,101061.00
2019-04-21T06:37:43.180Z,101058.00
2019-04-21T06:40:15.684Z,101058.00
2019-04-21T06:42:35.438Z,101049.00
2019-04-21T06:45:10.343Z,101052.00
2019-04-21T06:47:53.989Z,101044.00
2019-04-21T06:50:00.485Z,101042.00
2019-04-21T06:52:46.691Z,101032.00
2019-04-21T06:55:15.632Z,101033.00
2019-04-21T06:57:39.981Z,101039.00
2019-04-21T07:00:07.655Z,101033.00
2019-04-21T07:03:01.186Z,101024.00
2019-04-21T07:05:07.812Z,101033.00
2019-04-21T07:07:43.384Z,101032.00
2019-04-21T07:10:12.394Z,101031.00
2019-04-21T07:12:41.087Z,101038.00
2019-04-21T07:15:13.239Z,101055.00
2019-04-21T07:17:43.595Z,101037.00
2019-04-21T07:20:21.976Z,101037.00
2019-04-21T07:22:55.239Z,101026.00
2019-04-21T07:25:26.347Z,101032.00
2019-04-21T07:27:52.670Z,101024.00
2019-04-21T07:30:25.605Z,101027.00
2019-04-21T07:33:08.934Z,101029.00
2019-04-21T07:35:28.580Z,101020.00
2019-04-21T07:37:53.346Z,101022.00
2019-04-21T07:40:22.368Z,101020.00
2019-04-21T07:42:51.196Z,101015.00
2019-04-21T07:45:19.595Z,101013.00
2019-04-21T07:47:54.902Z,101005.00
2019-04-21T07:50:38.893Z,100996.00
2019-04-21T07:53:22.827Z,101004.00
2019-04-21T07:58:17.791Z,101000.00
2019-04-21T08:03:19.323Z,101007.00
2019-04-21T08:05:51.048Z,100994.00
2019-04-21T08:08:12.125Z,100992.00
2019-04-21T08:10:45.298Z,100992.00
2019-04-21T08:13:31.315Z,100998.00
2019-04-21T08:16:06.191Z,100996.00
2019-04-21T08:18:21.031Z,100994.00
2019-04-21T08:20:50.745Z,100989.00
2019-04-21T08:23:25.656Z,100983.00
2019-04-21T08:26:03.289Z,100987.00
2019-04-21T08:28:22.459Z,100985.00
2019-04-21T08:30:50.242Z,100982.00
2019-04-21T08:36:11.220Z,100976.00
2019-04-21T08:38:21.895Z,100977.00
2019-04-21T08:40:51.624Z,100968.00
2019-04-21T08:43:27.543Z,100965.00
2019-04-21T08:45:52.687Z,100969.00
2019-04-21T08:48:22.573Z,100974.00
2019-04-21T08:51:06.265Z,100964.00
2019-04-21T08:53:27.453Z,100974.00
2019-04-21T08:56:16.463Z,100968.00
2019-04-21T08:59:12.607Z,100968.00
2019-04-21T09:02:06.345Z,100966.00
2019-04-21T09:04:41.453Z,100965.00
2019-04-21T09:07:18.251Z,100961.00
2019-04-21T09:09:44.472Z,100957.00
2019-04-21T09:12:12.362Z,100950.00
2019-04-21T09:14:42.938Z,100952.00
2019-04-21T09:17:08.045Z,100957.00
2019-04-21T09:19:51.468Z,100951.00
2019-04-21T09:22:12.958Z,100945.00
2019-04-21T09:24:46.990Z,100942.00
2019-04-21T09:27:15.383Z,100942.00
2019-04-21T09:29:36.040Z,100933.00
2019-04-21T09:31:59.138Z,100933.00
2019-04-21T09:34:35.870Z,100926.00
2019-04-21T09:37:14.237Z,100915.00
2019-04-21T09:39:29.578Z,100920.00
2019-04-21T09:41:59.119Z,100927.00
2019-04-21T09:44:31.587Z,100915.00
2019-04-21T09:47:00.014Z,100911.00
2019-04-21T09:49:30.866Z,100916.00
2019-04-21T09:51:57.678Z,100908.00
2019-04-21T09:54:29.815Z,100902.00
2019-04-21T09:57:01.658Z,100904.00
2019-04-21T09:59:32.078Z,100909.00
2019-04-21T10:02:06.366Z,100893.00
2019-04-21T10:04:26.678Z,100892.00
2019-04-21T10:06:54.811Z,100894.00
2019-04-21T10:09:24.176Z,100890.00
2019-04-21T10:11:52.989Z,100890.00
2019-04-21T10:14:22.040Z,100886.00
2019-04-21T10:16:59.989Z,100885.00
2019-04-21T10:19:31.909Z,100877.00
2019-04-21T10:22:02.204Z,100869.00
2019-04-21T10:24:30.887Z,100867.00
2019-04-21T10:26:59.034Z,100864.00
2019-04-21T10:29:30.053Z,100859.00
2019-04-21T10:31:59.597Z,100856.00
2019-04-21T10:34:27.723Z,100851.00
2019-04-21T10:36:55.997Z,100850.00
2019-04-21T10:39:24.363Z,100847.00
2019-04-21T10:41:53.285Z,100844.00
2019-04-21T10:44:23.036Z,100829.00
2019-04-21T10:46:52.521Z,100832.00
2019-04-21T10:49:22.555Z,100832.00
2019-04-21T10:51:50.873Z,100825.00
2019-04-21T10:54:20.180Z,100824.00
2019-04-21T10:56:49.209Z,100826.00
2019-04-21T10:59:18.730Z,100823.00
2019-04-21T11:01:47.112Z,100812.00
2019-04-21T11:04:32.417Z,100807.00
2019-04-21T11:07:06.764Z,100806.00
2019-04-21T11:09:29.898Z,100801.00
2019-04-21T11:11:58.159Z,100795.00
2019-04-21T11:14:27.196Z,100796.00
2019-04-21T11:16:56.692Z,100787.00
2019-04-21T11:19:27.038Z,100793.00
2019-04-21T11:21:56.733Z,100782.00
2019-04-21T11:24:25.155Z,100773.00
2019-04-21T11:26:53.779Z,100767.00
2019-04-21T11:29:23.434Z,100769.00
2019-04-21T11:31:51.519Z,100766.00
2019-04-21T11:34:21.017Z,100762.00
2019-04-21T11:36:50.232Z,100756.00
2019-04-21T11:39:39.177Z,100756.00
2019-04-21T11:42:01.923Z,100740.00
2019-04-21T11:44:31.031Z,100743.00
2019-04-21T11:47:00.565Z,100737.00
2019-04-21T11:49:31.977Z,100740.00
2019-04-21T11:51:59.026Z,100734.00
2019-04-21T11:54:28.755Z,100733.00
2019-04-21T11:56:57.206Z,100724.00
2019-04-21T11:59:25.822Z,100719.00
2019-04-21T12:01:54.204Z,100719.00
2019-04-21T12:04:23.438Z,100717.00
2019-04-21T12:06:53.992Z,100719.00
2019-04-21T12:09:23.033Z,100714.00
2019-04-21T12:11:51.522Z,100708.00
2019-04-21T12:14:19.924Z,100709.00
2019-04-21T12:16:48.755Z,100700.00
2019-04-21T12:19:17.056Z,100693.00
2019-04-21T12:21:57.916Z,100706.00
2019-04-21T12:24:15.404Z,100696.00
2019-04-21T12:26:44.224Z,100700.00
2019-04-21T12:29:12.910Z,100692.00
2019-04-21T12:32:01.551Z,100682.00
2019-04-21T12:34:30.235Z,100673.00
2019-04-21T12:36:59.159Z,100675.00
2019-04-21T12:39:27.599Z,100666.00
2019-04-21T12:41:56.417Z,100660.00
2019-04-21T12:44:24.820Z,100655.00
2019-04-21T12:46:54.013Z,100656.00
2019-04-21T12:49:22.170Z,100651.00
2019-04-21T12:51:51.532Z,100650.00
2019-04-21T12:54:19.956Z,100647.00
2019-04-21T12:56:49.568Z,100647.00
2019-04-21T12:59:19.027Z,100626.00
2019-04-21T13:01:48.527Z,100632.00
2019-04-21T13:04:17.734Z,100627.00
2019-04-21T13:06:45.894Z,100622.00
2019-04-21T13:09:17.874Z,100614.00
2019-04-21T13:11:44.126Z,100618.00
2019-04-21T13:14:13.587Z,100613.00
2019-04-21T13:16:43.405Z,100609.00
2019-04-21T13:19:11.747Z,100601.00
2019-04-21T13:21:40.318Z,100603.00
2019-04-21T13:24:08.797Z,100589.00
2019-04-21T13:26:43.941Z,100602.00
2019-04-21T13:29:08.034Z,100597.00
2019-04-21T13:31:40.101Z,100581.00
2019-04-21T13:34:08.457Z,100579.00
2019-04-21T13:36:36.588Z,100580.00
2019-04-21T13:39:55.244Z,100576.00
2019-04-21T13:42:14.501Z,100562.00
2019-04-21T13:44:35.008Z,100565.00
2019-04-21T13:47:03.171Z,100560.00
2019-04-21T13:49:31.671Z,100563.00
2019-04-21T13:52:00.568Z,100559.00
2019-04-21T13:54:29.666Z,100552.00
2019-04-21T13:56:58.628Z,100539.00
2019-04-21T13:59:26.924Z,100541.00
2019-04-21T14:01:55.150Z,100537.00
2019-04-21T14:04:23.470Z,100546.00
2019-04-21T14:06:54.162Z,100544.00
2019-04-21T14:09:34.272Z,100534.00
2019-04-21T14:11:55.124Z,100532.00
2019-04-21T14:14:23.921Z,100534.00
2019-04-21T14:16:52.142Z,100530.00
2019-04-21T14:19:21.443Z,100523.00
2019-04-21T14:21:51.590Z,100519.00
2019-04-21T14:24:19.569Z,100510.00
2019-04-21T14:26:47.924Z,100513.00
2019-04-21T14:29:17.490Z,100506.00
2019-04-21T14:31:46.420Z,100511.00
2019-04-21T14:34:14.675Z,100506.00
2019-04-21T14:36:42.674Z,100510.00
2019-04-21T14:39:10.794Z,100503.00
2019-04-21T14:41:40.120Z,100510.00
2019-04-21T14:44:09.151Z,100507.00
2019-04-21T14:46:57.770Z,100500.00
2019-04-21T14:49:55.250Z,100501.00
2019-04-21T14:52:30.867Z,100495.00
2019-04-21T14:55:07.218Z,100494.00
2019-04-21T14:57:36.830Z,100495.00
2019-04-21T15:00:09.282Z,100488.00
2019-04-21T15:02:38.145Z,100488.00
2019-04-21T15:05:07.221Z,100491.00
2019-04-21T15:07:37.109Z,100493.00
2019-04-21T15:10:13.289Z,100486.00
2019-04-21T15:12:36.548Z,100476.00
2019-04-21T15:15:05.682Z,100485.00
2019-04-21T15:17:35.816Z,100481.00
2019-04-21T15:20:11.125Z,100482.00
2019-04-21T15:22:36.760Z,100479.00
2019-04-21T15:25:06.005Z,100470.00
2019-04-21T15:27:34.909Z,100475.00
2019-04-21T15:30:04.828Z,100473.00
2019-04-21T15:32:33.076Z,100449.00
2019-04-21T15:35:04.048Z,100474.00
2019-04-21T15:37:33.811Z,100470.00
2019-04-21T15:40:12.260Z,100462.00
2019-04-21T15:42:32.595Z,100463.00
2019-04-21T15:45:00.961Z,100465.00
2019-04-21T15:47:29.041Z,100463.00
2019-04-21T15:50:03.710Z,100459.00
2019-04-21T15:52:28.154Z,100449.00
2019-04-21T15:55:08.392Z,100452.00
2019-04-21T15:57:49.005Z,100461.00
2019-04-21T16:00:26.792Z,100445.00
2019-04-21T16:02:55.244Z,100443.00
2019-04-21T16:05:24.539Z,100443.00
2019-04-21T16:07:54.200Z,100436.00
2019-04-21T16:10:34.293Z,100434.00
2019-04-21T16:12:53.739Z,100433.00
2019-04-21T16:15:22.936Z,100439.00
2019-04-21T16:17:51.208Z,100427.00
2019-04-21T16:20:19.840Z,100416.00
2019-04-21T16:22:48.654Z,100416.00
2019-04-21T16:25:18.875Z,100425.00
2019-04-21T16:27:47.688Z,100418.00
2019-04-21T16:30:17.665Z,100410.00
2019-04-21T16:32:46.090Z,100408.00
2019-04-21T16:35:16.970Z,100409.00
2019-04-21T16:37:45.794Z,100398.00
2019-04-21T16:40:14.574Z,100397.00
2019-04-21T16:42:42.741Z,100393.00
2019-04-21T16:45:12.679Z,100397.00
2019-04-21T16:47:42.195Z,100402.00
2019-04-21T16:50:11.688Z,100394.00
2019-04-21T16:52:47.895Z,100389.00
2019-04-21T16:55:26.753Z,100389.00
2019-04-21T16:58:16.924Z,100392.00
2019-04-21T17:00:53.878Z,100387.00
2019-04-21T17:03:14.714Z,100384.00
2019-04-21T17:05:43.631Z,100382.00
2019-04-21T17:08:11.695Z,100382.00
2019-04-21T17:10:41.669Z,100388.00
2019-04-21T17:13:09.938Z,100384.00
2019-04-21T17:15:56.631Z,100384.00
2019-04-21T17:18:25.180Z,100382.00
2019-04-21T17:20:46.462Z,100383.00
2019-04-21T17:23:09.485Z,100374.00
2019-04-21T17:25:39.192Z,100370.00
2019-04-21T17:28:07.893Z,100375.00
2019-04-21T17:30:36.734Z,100371.00
2019-04-21T17:33:05.686Z,100366.00
2019-04-21T17:35:36.208Z,100359.00
2019-04-21T17:38:05.792Z,100360.00
2019-04-21T17:40:34.267Z,100362.00
2019-04-21T17:43:07.569Z,100366.00
2019-04-21T17:45:33.028Z,100357.00
2019-04-21T17:48:08.058Z,100356.00
2019-04-21T17:50:51.588Z,100358.00
2019-04-21T17:53:32.715Z,100359.00
2019-04-21T17:56:19.545Z,100361.00
2019-04-21T17:58:43.303Z,100354.00
2019-04-21T18:01:40.831Z,100363.00
2019-04-21T18:03:58.467Z,100364.00
2019-04-21T18:06:14.239Z,100366.00
2019-04-21T18:08:53.387Z,100360.00
2019-04-21T18:11:11.614Z,100372.00
2019-04-21T18:13:32.745Z,100374.00
2019-04-21T18:16:11.044Z,100370.00
2019-04-21T18:18:32.910Z,100375.00
2019-04-21T18:21:08.933Z,100370.00
2019-04-21T18:23:56.538Z,100386.00
2019-04-21T18:26:30.603Z,100381.00
2019-04-21T18:28:46.983Z,100380.00
2019-04-21T18:31:16.432Z,100377.00
2019-04-21T18:33:59.878Z,100370.00
2019-04-21T18:36:34.081Z,100376.00
2019-04-21T18:39:46.451Z,100381.00
2019-04-21T18:42:26.365Z,100378.00
2019-04-21T18:45:36.096Z,100383.00
2019-04-21T18:48:01.627Z,100382.00
2019-04-21T18:50:46.175Z,100379.00
2019-04-21T18:53:24.533Z,100374.00
2019-04-21T18:55:47.291Z,100380.00
2019-04-21T18:58:15.294Z,100126.00
2019-04-21T19:00:45.913Z,100376.00
2019-04-21T19:03:19.897Z,100378.00
2019-04-21T19:05:50.122Z,100381.00
2019-04-21T19:08:34.475Z,100384.00
2019-04-21T19:11:12.041Z,100387.00
2019-04-21T19:13:45.320Z,100385.00
2019-04-21T19:16:22.528Z,100392.00
2019-04-21T19:18:56.641Z,100393.00
2019-04-21T19:21:00.205Z,100394.00
2019-04-21T19:23:45.243Z,100387.00
2019-04-21T19:26:16.104Z,100382.00
2019-04-21T19:28:41.039Z,100389.00
2019-04-21T19:31:11.024Z,100378.00
2019-04-21T19:33:29.714Z,100384.00
2019-04-21T19:35:47.727Z,100386.00
2019-04-21T19:38:22.927Z,100385.00
2019-04-21T19:41:03.949Z,100379.00
2019-04-21T19:43:35.830Z,100374.00
2019-04-21T19:46:04.346Z,100372.00
2019-04-21T19:48:33.247Z,100375.00
2019-04-21T19:51:01.243Z,100377.00
2019-04-21T19:53:29.858Z,100373.00
2019-04-21T19:55:47.935Z,100375.00
2019-04-21T19:58:20.567Z,100373.00
2019-04-21T20:00:48.517Z,100378.00
2019-04-21T20:03:16.547Z,100375.00
2019-04-21T20:05:54.601Z,100363.00
2019-04-21T20:08:29.068Z,100374.00
2019-04-21T20:11:05.631Z,100366.00
2019-04-21T20:13:46.601Z,100364.00
2019-04-21T20:16:07.913Z,100364.00
2019-04-21T20:18:24.522Z,100366.00
2019-04-21T20:20:46.062Z,100361.00
2019-04-21T20:23:16.956Z,100358.00
2019-04-21T20:25:49.797Z,100358.00
2019-04-21T20:28:25.449Z,100353.00
2019-04-21T20:31:03.669Z,100351.00
2019-04-21T20:36:01.960Z,100353.00
2019-04-21T20:38:28.410Z,100361.00
2019-04-21T20:40:56.379Z,100352.00
2019-04-21T20:43:38.672Z,100350.00
2019-04-21T20:46:04.837Z,100353.00
2019-04-21T20:48:29.210Z,100350.00
2019-04-21T20:51:06.462Z,100355.00
2019-04-21T20:53:31.427Z,100357.00
2019-04-21T20:55:59.292Z,100350.00
2019-04-21T20:58:35.845Z,100345.00
2019-04-21T21:01:20.212Z,100345.00
2019-04-21T21:03:34.831Z,100342.00
2019-04-21T21:06:00.307Z,100345.00
2019-04-21T21:08:35.829Z,100351.00
2019-04-21T21:11:05.543Z,100339.00
2019-04-21T21:13:37.414Z,100343.00
2019-04-21T21:16:13.856Z,100334.00
2019-04-21T21:21:05.025Z,100338.00
2019-04-21T21:23:38.658Z,100344.00
2019-04-21T21:26:11.448Z,100336.00
2019-04-21T21:28:36.886Z,100339.00
2019-04-21T21:31:11.754Z,100341.00
2019-04-21T21:33:46.616Z,100335.00
2019-04-21T21:36:10.584Z,100332.00
2019-04-21T21:38:36.397Z,100334.00
2019-04-21T21:41:10.905Z,100336.00
2019-04-21T21:43:31.341Z,100332.00
2019-04-21T21:46:02.945Z,100335.00
2019-04-21T21:48:40.716Z,100323.00
2019-04-21T21:51:05.938Z,100335.00
2019-04-21T21:53:32.594Z,100324.00
2019-04-21T21:56:00.665Z,100326.00
2019-04-21T21:58:36.466Z,100326.00
2019-04-21T22:01:02.973Z,100326.00
2019-04-21T22:03:35.337Z,100326.00
2019-04-21T22:06:04.999Z,100310.00
2019-04-21T22:08:32.268Z,100313.00
2019-04-21T22:11:01.337Z,100319.00
2019-04-21T22:13:39.917Z,100316.00
2019-04-21T22:16:06.045Z,100316.00
2019-04-21T22:18:46.324Z,100318.00
2019-04-21T22:21:12.867Z,100316.00
2019-04-21T22:23:42.341Z,100325.00
2019-04-21T22:26:01.023Z,100322.00
2019-04-21T22:28:29.700Z,100332.00
2019-04-21T22:30:58.748Z,100326.00
2019-04-21T22:33:31.241Z,100318.00
2019-04-21T22:36:05.405Z,100322.00
2019-04-21T22:38:42.530Z,100333.00
2019-04-21T22:41:09.970Z,100333.00
2019-04-21T22:43:34.513Z,100325.00
2019-04-21T22:45:59.167Z,100332.00
2019-04-21T22:48:28.957Z,100330.00
2019-04-21T22:50:58.321Z,100324.00
2019-04-21T22:53:34.424Z,100330.00
2019-04-21T22:56:04.359Z,100330.00
2019-04-21T22:58:31.696Z,100330.00
2019-04-21T23:01:03.445Z,100331.00
2019-04-21T23:03:32.537Z,100314.00
2019-04-21T23:06:10.962Z,100321.00
2019-04-21T23:08:36.961Z,100317.00
2019-04-21T23:11:06.277Z,100316.00
2019-04-21T23:13:32.781Z,100321.00
2019-04-21T23:16:03.147Z,100317.00
2019-04-21T23:18:46.098Z,100313.00
2019-04-21T23:21:14.929Z,100306.00
2019-04-21T23:23:49.619Z,100320.00
2019-04-21T23:26:23.771Z,100318.00
2019-04-21T23:29:07.475Z,100318.00
2019-04-21T23:31:41.912Z,100312.00
2019-04-21T23:33:52.590Z,100310.00
2019-04-21T23:36:28.391Z,100313.00
2019-04-21T23:38:57.113Z,100310.00
2019-04-21T23:41:27.344Z,100309.00
2019-04-21T23:43:59.379Z,100303.00
2019-04-21T23:46:29.872Z,100297.00
2019-04-21T23:49:07.540Z,100310.00
2019-04-21T23:51:34.474Z,100295.00
2019-04-21T23:53:55.429Z,100291.00
2019-04-21T23:56:32.916Z,100294.00
2019-04-21T23:59:02.616Z,100298.00
